Time;durP1;ratioP1;P1;durP2;ratioP2;P2;SDS_P1;SDS_P2;PMS_P1;PMS_P2;Temp;Humidity;BMP_temperature;BMP_pressure;BME280_temperature;BME280_humidity;BME280_pressure;Samples;Min_cycle;Max_cycle;Signal;HPM_P1;HPM_P2
2024/01/05 00:01:04;;;;;;;;;;;;;;;;;;5101597;28;20019;-77
2024/01/05 00:03:31;;;;;;;;;;;;;;;;;;5100159;27;19980;-79
2024/01/05 00:05:57;;;;;;;;;;;;;;;;;;5116133;27;19928;-78
2024/01/05 00:08:24;;;;;;;;;;;;;;;;;;5099567;28;19930;-79
2024/01/05 00:10:50;;;;;;;;;;;;;;;;;;5117983;27;19932;-84
2024/01/05 00:13:17;;;;;;;;;;;;;;;;;;5121025;27;20700;-82
2024/01/05 00:15:43;;;;;;;;;;;;;;;;;;5086361;27;19968;-85
2024/01/05 00:18:10;;;;;;;;;;;;;;;;;;5107203;27;19927;-85
2024/01/05 00:20:36;;;;;;;;;;;;;;;;;;5096917;27;19969;-79
2024/01/05 00:23:03;;;;;;;;;;;;;;;;;;5102057;28;20011;-84
2024/01/05 00:25:29;;;;;;;;;;;;;;;;;;5098786;28;19946;-80
2024/01/05 00:27:57;;;;;;;;;;;;;;;;;;5118438;27;20304;-75
2024/01/05 00:30:24;;;;;;;;;;;;;;;;;;5097799;27;19932;-78
2024/01/05 00:32:50;;;;;;;;;;;;;;;;;;5104098;27;20370;-78
2024/01/05 00:35:18;;;;;;;;;;;;;;;;;;5097003;28;19924;-76
2024/01/05 00:37:45;;;;;;;;;;;;;;;;;;5127480;27;19923;-79
2024/01/05 00:40:12;;;;;;;;;;;;;;;;;;5120062;27;19928;-79
2024/01/05 00:42:38;;;;;;;;;;;;;;;;;;5081741;28;19935;-79
2024/01/05 00:45:05;;;;;;;;;;;;;;;;;;5117392;27;20398;-79
2024/01/05 00:47:32;;;;;;;;;;;;;;;;;;5124871;27;19931;-81
2024/01/05 00:49:59;;;;;;;;;;;;;;;;;;5119871;27;20280;-80
2024/01/05 00:52:25;;;;;;;;;;;;;;;;;;5102984;27;19928;-81
2024/01/05 00:54:52;;;;;;;;;;;;;;;;;;5121416;27;19989;-84
2024/01/05 00:57:21;;;;;;;;;;;;;;;;;;5104658;27;19965;-84
2024/01/05 00:59:49;;;;;;;;;;;;;;;;;;5109346;27;19931;-78
2024/01/05 01:02:15;;;;;;;;;;;;;;;;;;5117094;27;20272;-84
2024/01/05 01:04:42;;;;;;;;;;;;;;;;;;5103080;28;19981;-81
2024/01/05 01:07:08;;;;;;;;;;;;;;;;;;5117757;27;20016;-77
2024/01/05 01:09:42;;;;;;;;;;;;;;;;;;5122539;27;20014;-84
2024/01/05 01:12:09;;;;;;;;;;;;;;;;;;5097665;28;20284;-77
2024/01/05 01:14:35;;;;;;;;;;;;;;;;;;5095718;27;20026;-78
2024/01/05 01:17:04;;;;;;;;;;;;;;;;;;5092494;27;20399;-78
2024/01/05 01:19:30;;;;;;;;;;;;;;;;;;5087313;27;19993;-78
2024/01/05 01:21:57;;;;;;;;;;;;;;;;;;5099645;28;19953;-76
2024/01/05 01:24:23;;;;;;;;;;;;;;;;;;5094540;28;19958;-78
2024/01/05 01:26:50;;;;;;;;;;;;;;;;;;5094649;28;20029;-77
2024/01/05 01:29:16;;;;;;;;;;;;;;;;;;5096683;28;20368;-82
2024/01/05 01:31:43;;;;;;;;;;;;;;;;;;5080386;28;20392;-83
2024/01/05 01:34:10;;;;;;;;;;;;;;;;;;5098589;27;19967;-83
2024/01/05 01:36:36;;;;;;;;;;;;;;;;;;5116749;28;20010;-84
2024/01/05 01:39:04;;;;;;;;;;;;;;;;;;5099833;28;20035;-83
2024/01/05 01:41:31;;;;;;;;;;;;;;;;;;5098502;28;19946;-84
2024/01/05 01:43:58;;;;;;;;;;;;;;;;;;5099735;28;19923;-84
2024/01/05 01:46:28;;;;;;;;;;;;;;;;;;5100202;27;19972;-84
2024/01/05 01:48:55;;;;;;;;;;;;;;;;;;5095733;28;19931;-85
2024/01/05 01:51:22;;;;;;;;;;;;;;;;;;5081331;28;19923;-83
2024/01/05 01:53:48;;;;;;;;;;;;;;;;;;5120013;28;19932;-83
2024/01/05 01:56:15;;;;;;;;;;;;;;;;;;5101887;28;19931;-82
2024/01/05 01:58:43;;;;;;;;;;;;;;;;;;5087558;28;19924;-82
2024/01/05 02:01:10;;;;;;;;;;;;;;;;;;5096694;28;19935;-82
2024/01/05 02:03:37;;;;;;;;;;;;;;;;;;5098789;28;19928;-82
2024/01/05 02:06:04;;;;;;;;;;;;;;;;;;5122349;28;20399;-83
2024/01/05 02:08:30;;;;;;;;;;;;;;;;;;5103074;28;20360;-84
2024/01/05 02:10:58;;;;;;;;;;;;;;;;;;5106925;28;20420;-83
2024/01/05 02:13:25;;;;;;;;;;;;;;;;;;5102874;28;19931;-84
2024/01/05 02:15:53;;;;;;;;;;;;;;;;;;5104760;28;19930;-83
2024/01/05 02:18:20;;;;;;;;;;;;;;;;;;5099985;28;20433;-82
2024/01/05 02:20:51;;;;;;;;;;;;;;;;;;5117772;28;19934;-85
2024/01/05 02:23:30;;;;;;;;;;;;;;;;;;5114135;28;19991;-84
2024/01/05 02:25:57;;;;;;;;;;;;;;;;;;5101810;28;19923;-84
2024/01/05 02:28:32;;;;;;;;;;;;;;;;;;5085634;28;20019;-83
2024/01/05 02:31:01;;;;;;;;;;;;;;;;;;5116089;28;20002;-84
2024/01/05 02:33:29;;;;;;;;;;;;;;;;;;5100119;28;19923;-84
2024/01/05 02:36:04;;;;;;;;;;;;;;;;;;5099665;28;19927;-83
2024/01/05 02:38:33;;;;;;;;;;;;;;;;;;5122688;28;20308;-83
2024/01/05 02:40:59;;;;;;;;;;;;;;;;;;5085222;28;19924;-83
2024/01/05 02:43:27;;;;;;;;;;;;;;;;;;5098947;28;20396;-84
2024/01/05 02:45:54;;;;;;;;;;;;;;;;;;5120226;28;19932;-83
2024/01/05 02:48:21;;;;;;;;;;;;;;;;;;5097304;27;19969;-83
2024/01/05 02:50:50;;;;;;;;;;;;;;;;;;5098998;28;19972;-84
2024/01/05 02:53:17;;;;;;;;;;;;;;;;;;5127722;27;19930;-83
2024/01/05 02:55:47;;;;;;;;;;;;;;;;;;5100833;28;19928;-84
2024/01/05 02:58:16;;;;;;;;;;;;;;;;;;5118339;27;19933;-84
2024/01/05 03:00:43;;;;;;;;;;;;;;;;;;5099542;28;19934;-83
2024/01/05 03:03:10;;;;;;;;;;;;;;;;;;5117970;27;20385;-83
2024/01/05 03:05:38;;;;;;;;;;;;;;;;;;5122013;27;20070;-84
2024/01/05 03:08:06;;;;;;;;;;;;;;;;;;5106120;27;19924;-84
2024/01/05 03:10:33;;;;;;;;;;;;;;;;;;5100156;27;19928;-83
2024/01/05 03:13:03;;;;;;;;;;;;;;;;;;5118316;27;19928;-83
2024/01/05 03:15:32;;;;;;;;;;;;;;;;;;5102802;27;19924;-82
2024/01/05 03:18:01;;;;;;;;;;;;;;;;;;5121885;27;19924;-83
2024/01/05 03:20:29;;;;;;;;;;;;;;;;;;5120492;27;19924;-84
2024/01/05 03:22:57;;;;;;;;;;;;;;;;;;5122575;27;19928;-84
2024/01/05 03:25:27;;;;;;;;;;;;;;;;;;5080215;28;19949;-84
2024/01/05 03:27:55;;;;;;;;;;;;;;;;;;5104962;27;19924;-85
2024/01/05 03:30:23;;;;;;;;;;;;;;;;;;5100357;27;19951;-84
2024/01/05 03:32:50;;;;;;;;;;;;;;;;;;5122247;27;20022;-84
2024/01/05 03:35:17;;;;;;;;;;;;;;;;;;5116925;27;20383;-83
2024/01/05 03:37:45;;;;;;;;;;;;;;;;;;5119319;27;19953;-84
2024/01/05 03:40:12;;;;;;;;;;;;;;;;;;5117101;27;19928;-84
2024/01/05 03:42:39;;;;;;;;;;;;;;;;;;5102833;27;19924;-84
2024/01/05 03:45:06;;;;;;;;;;;;;;;;;;5100801;27;19931;-84
2024/01/05 03:47:33;;;;;;;;;;;;;;;;;;5116754;27;20018;-83
2024/01/05 03:50:01;;;;;;;;;;;;;;;;;;5098639;28;20302;-84
2024/01/05 03:52:28;;;;;;;;;;;;;;;;;;5102728;27;19984;-84
2024/01/05 03:54:56;;;;;;;;;;;;;;;;;;5100844;28;20387;-83
2024/01/05 03:57:24;;;;;;;;;;;;;;;;;;5103406;27;20303;-83
2024/01/05 03:59:52;;;;;;;;;;;;;;;;;;5100923;28;20406;-83
2024/01/05 04:02:20;;;;;;;;;;;;;;;;;;5108066;27;19953;-83
2024/01/05 04:04:52;;;;;;;;;;;;;;;;;;5106318;27;19928;-83
2024/01/05 04:07:19;;;;;;;;;;;;;;;;;;5103450;28;19923;-83
2024/01/05 04:09:50;;;;;;;;;;;;;;;;;;5104963;27;20322;-84
2024/01/05 04:12:20;;;;;;;;;;;;;;;;;;5088136;27;19924;-83
2024/01/05 04:14:50;;;;;;;;;;;;;;;;;;5096272;28;19923;-83
2024/01/05 04:17:17;;;;;;;;;;;;;;;;;;5126154;27;20303;-83
2024/01/05 04:19:44;;;;;;;;;;;;;;;;;;5101573;28;20300;-82
2024/01/05 04:22:15;;;;;;;;;;;;;;;;;;5103143;27;19924;-83
2024/01/05 04:24:42;;;;;;;;;;;;;;;;;;5102858;27;19977;-83
2024/01/05 04:27:08;;;;;;;;;;;;;;;;;;5119754;27;20437;-82
2024/01/05 04:29:41;;;;;;;;;;;;;;;;;;5082705;28;19923;-81
2024/01/05 04:32:08;;;;;;;;;;;;;;;;;;5123029;27;19924;-83
2024/01/05 04:34:35;;;;;;;;;;;;;;;;;;5119292;27;20313;-82
2024/01/05 04:37:08;;;;;;;;;;;;;;;;;;5104118;28;19927;-84
2024/01/05 04:39:49;;;;;;;;;;;;;;;;;;5100543;27;19976;-83
2024/01/05 04:42:18;;;;;;;;;;;;;;;;;;5101600;27;20018;-82
2024/01/05 04:44:46;;;;;;;;;;;;;;;;;;5116906;27;20014;-82
2024/01/05 04:47:16;;;;;;;;;;;;;;;;;;5101335;27;19924;-83
2024/01/05 04:49:55;;;;;;;;;;;;;;;;;;5113047;27;20016;-82
2024/01/05 04:52:21;;;;;;;;;;;;;;;;;;5083218;27;19928;-83
2024/01/05 04:54:49;;;;;;;;;;;;;;;;;;5090117;28;19955;-84
2024/01/05 04:57:18;;;;;;;;;;;;;;;;;;5109875;27;19924;-82
2024/01/05 04:59:46;;;;;;;;;;;;;;;;;;5067433;28;19973;-82
2024/01/05 05:02:15;;;;;;;;;;;;;;;;;;5114324;27;19927;-83
2024/01/05 05:04:45;;;;;;;;;;;;;;;;;;5118508;27;20022;-83
2024/01/05 05:07:14;;;;;;;;;;;;;;;;;;5121198;27;19958;-83
2024/01/05 05:09:41;;;;;;;;;;;;;;;;;;5083728;27;20051;-82
2024/01/05 05:12:13;;;;;;;;;;;;;;;;;;5114866;27;19981;-82
2024/01/05 05:14:40;;;;;;;;;;;;;;;;;;5095999;28;19924;-82
2024/01/05 05:17:14;;;;;;;;;;;;;;;;;;5107123;27;19931;-83
2024/01/05 05:19:41;;;;;;;;;;;;;;;;;;5096180;28;19949;-83
2024/01/05 05:22:07;;;;;;;;;;;;;;;;;;5115437;27;19923;-80
2024/01/05 05:24:35;;;;;;;;;;;;;;;;;;5098321;27;19928;-81
2024/01/05 05:27:04;;;;;;;;;;;;;;;;;;5119092;27;19924;-81
2024/01/05 05:29:31;;;;;;;;;;;;;;;;;;5095645;28;19927;-80
2024/01/05 05:32:00;;;;;;;;;;;;;;;;;;5115898;27;19923;-81
2024/01/05 05:34:28;;;;;;;;;;;;;;;;;;5114431;28;19928;-81
2024/01/05 05:36:58;;;;;;;;;;;;;;;;;;5098455;27;20023;-81
2024/01/05 05:39:26;;;;;;;;;;;;;;;;;;5098228;27;19927;-80
2024/01/05 05:41:56;;;;;;;;;;;;;;;;;;5116455;27;20342;-81
2024/01/05 05:44:23;;;;;;;;;;;;;;;;;;5118719;27;20010;-82
2024/01/05 05:47:02;;;;;;;;;;;;;;;;;;5121328;27;19977;-82
2024/01/05 05:49:28;;;;;;;;;;;;;;;;;;5080976;28;19930;-80
2024/01/05 05:52:01;;;;;;;;;;;;;;;;;;5113607;28;19931;-80
2024/01/05 05:54:30;;;;;;;;;;;;;;;;;;5098349;28;19934;-82
2024/01/05 05:56:57;;;;;;;;;;;;;;;;;;5118862;28;19931;-81
2024/01/05 05:59:27;;;;;;;;;;;;;;;;;;5098985;28;19966;-82
2024/01/05 06:01:54;;;;;;;;;;;;;;;;;;5099689;28;19931;-80
2024/01/05 06:04:20;;;;;;;;;;;;;;;;;;5099448;28;20327;-81
2024/01/05 06:06:47;;;;;;;;;;;;;;;;;;5122090;28;20034;-81
2024/01/05 06:09:17;;;;;;;;;;;;;;;;;;5118183;28;19924;-79
2024/01/05 06:11:44;;;;;;;;;;;;;;;;;;5100708;28;20004;-82
2024/01/05 06:14:11;;;;;;;;;;;;;;;;;;5100321;28;20711;-81
2024/01/05 06:16:38;;;;;;;;;;;;;;;;;;5100749;28;19923;-83
2024/01/05 06:19:04;;;;;;;;;;;;;;;;;;5100963;28;20300;-81
2024/01/05 06:21:31;;;;;;;;;;;;;;;;;;5094846;28;20296;-83
2024/01/05 06:23:58;;;;;;;;;;;;;;;;;;5090901;27;20022;-81
2024/01/05 06:26:25;;;;;;;;;;;;;;;;;;5121700;27;19931;-82
2024/01/05 06:28:52;;;;;;;;;;;;;;;;;;5091719;27;20383;-81
2024/01/05 06:31:18;;;;;;;;;;;;;;;;;;5084541;28;19924;-83
2024/01/05 06:33:46;;;;;;;;;;;;;;;;;;5119804;27;19934;-82
2024/01/05 06:36:12;;;;;;;;;;;;;;;;;;5120361;27;19924;-81
2024/01/05 06:38:39;;;;;;;;;;;;;;;;;;5091431;28;19927;-80
2024/01/05 06:41:06;;;;;;;;;;;;;;;;;;5087544;28;19924;-81
2024/01/05 06:43:32;;;;;;;;;;;;;;;;;;5103295;28;19971;-82
2024/01/05 06:46:00;;;;;;;;;;;;;;;;;;5119033;27;19927;-82
2024/01/05 06:48:26;;;;;;;;;;;;;;;;;;5106035;27;19934;-81
2024/01/05 06:50:53;;;;;;;;;;;;;;;;;;5116117;27;19924;-81
2024/01/05 06:53:19;;;;;;;;;;;;;;;;;;5101764;27;20018;-81
2024/01/05 06:55:46;;;;;;;;;;;;;;;;;;5100334;28;19970;-80
2024/01/05 06:58:15;;;;;;;;;;;;;;;;;;5101518;27;19924;-82
2024/01/05 07:00:42;;;;;;;;;;;;;;;;;;5107778;27;19928;-82
2024/01/05 07:03:09;;;;;;;;;;;;;;;;;;5083917;28;20010;-82
2024/01/05 07:05:39;;;;;;;;;;;;;;;;;;5077142;28;19978;-82
2024/01/05 07:08:07;;;;;;;;;;;;;;;;;;5100887;28;19924;-81
2024/01/05 07:10:34;;;;;;;;;;;;;;;;;;5101926;28;19963;-80
2024/01/05 07:13:00;;;;;;;;;;;;;;;;;;5103558;28;19932;-80
2024/01/05 07:15:29;;;;;;;;;;;;;;;;;;5105087;28;20446;-81
2024/01/05 07:17:55;;;;;;;;;;;;;;;;;;5092538;28;19969;-80
2024/01/05 07:20:22;;;;;;;;;;;;;;;;;;5120228;27;19924;-80
2024/01/05 07:22:48;;;;;;;;;;;;;;;;;;5116475;28;20383;-80
2024/01/05 07:25:15;;;;;;;;;;;;;;;;;;5087813;28;20392;-81
2024/01/05 07:27:41;;;;;;;;;;;;;;;;;;5080899;28;20381;-80
2024/01/05 07:30:07;;;;;;;;;;;;;;;;;;5090043;27;19928;-83
2024/01/05 07:32:34;;;;;;;;;;;;;;;;;;5100394;28;19989;-83
2024/01/05 07:35:00;;;;;;;;;;;;;;;;;;5123305;27;19931;-82
2024/01/05 07:37:27;;;;;;;;;;;;;;;;;;5099925;27;19938;-83
2024/01/05 07:39:53;;;;;;;;;;;;;;;;;;5101186;27;19931;-82
2024/01/05 07:42:20;;;;;;;;;;;;;;;;;;5119230;27;19927;-83
2024/01/05 07:44:46;;;;;;;;;;;;;;;;;;5119071;27;19974;-82
2024/01/05 07:47:13;;;;;;;;;;;;;;;;;;5085330;27;19924;-80
2024/01/05 07:49:39;;;;;;;;;;;;;;;;;;5116425;27;19928;-82
2024/01/05 07:52:05;;;;;;;;;;;;;;;;;;5122700;27;19930;-82
2024/01/05 07:54:32;;;;;;;;;;;;;;;;;;5106186;27;20400;-82
2024/01/05 07:56:58;;;;;;;;;;;;;;;;;;5101262;28;19924;-82
2024/01/05 07:59:25;;;;;;;;;;;;;;;;;;5097786;28;19924;-82
2024/01/05 08:01:52;;;;;;;;;;;;;;;;;;5120815;27;19973;-80
2024/01/05 08:04:18;;;;;;;;;;;;;;;;;;5105631;27;19923;-83
2024/01/05 08:06:45;;;;;;;;;;;;;;;;;;5124513;27;20284;-82
2024/01/05 08:09:11;;;;;;;;;;;;;;;;;;5101752;28;20311;-81
2024/01/05 08:11:37;;;;;;;;;;;;;;;;;;5124877;27;19927;-82
2024/01/05 08:14:07;;;;;;;;;;;;;;;;;;5104050;27;20404;-81
2024/01/05 08:16:33;;;;;;;;;;;;;;;;;;5121982;27;20030;-81
2024/01/05 08:19:00;;;;;;;;;;;;;;;;;;5118330;27;19962;-81
2024/01/05 08:21:26;;;;;;;;;;;;;;;;;;5098205;27;19930;-81
2024/01/05 08:23:53;;;;;;;;;;;;;;;;;;5101264;28;19924;-81
2024/01/05 08:26:19;;;;;;;;;;;;;;;;;;5117572;27;19966;-81
2024/01/05 08:28:46;;;;;;;;;;;;;;;;;;5116422;27;19923;-82
2024/01/05 08:31:12;;;;;;;;;;;;;;;;;;5102808;27;19971;-81
2024/01/05 08:33:38;;;;;;;;;;;;;;;;;;5102451;27;19930;-81
2024/01/05 08:36:05;;;;;;;;;;;;;;;;;;5120716;27;20342;-81
2024/01/05 08:38:31;;;;;;;;;;;;;;;;;;5096154;28;19928;-83
2024/01/05 08:40:58;;;;;;;;;;;;;;;;;;5118903;27;19973;-81
2024/01/05 08:43:24;;;;;;;;;;;;;;;;;;5116387;27;19989;-82
2024/01/05 08:45:51;;;;;;;;;;;;;;;;;;5102589;27;19924;-83
2024/01/05 08:48:17;;;;;;;;;;;;;;;;;;5083620;27;19928;-80
2024/01/05 08:50:44;;;;;;;;;;;;;;;;;;5098976;28;20390;-81
2024/01/05 08:53:10;;;;;;;;;;;;;;;;;;5116535;27;20004;-82
2024/01/05 08:55:36;;;;;;;;;;;;;;;;;;5101738;27;19972;-81
2024/01/05 08:58:04;;;;;;;;;;;;;;;;;;5085995;27;19924;-82
2024/01/05 09:00:30;;;;;;;;;;;;;;;;;;5096214;27;19963;-82
2024/01/05 09:02:57;;;;;;;;;;;;;;;;;;5079582;28;19955;-83
2024/01/05 09:05:23;;;;;;;;;;;;;;;;;;5099024;27;20334;-82
2024/01/05 09:07:50;;;;;;;;;;;;;;;;;;5096916;28;19924;-83
2024/01/05 09:10:17;;;;;;;;;;;;;;;;;;5118757;27;19931;-82
2024/01/05 09:12:43;;;;;;;;;;;;;;;;;;5094955;27;19931;-83
2024/01/05 09:15:10;;;;;;;;;;;;;;;;;;5097333;27;19931;-82
2024/01/05 09:17:36;;;;;;;;;;;;;;;;;;5116201;27;20532;-81
2024/01/05 09:20:03;;;;;;;;;;;;;;;;;;5116681;27;19924;-82
2024/01/05 09:22:30;;;;;;;;;;;;;;;;;;5117458;27;19931;-82
2024/01/05 09:24:56;;;;;;;;;;;;;;;;;;5100878;27;19924;-81
2024/01/05 09:27:23;;;;;;;;;;;;;;;;;;5101668;27;19931;-80
2024/01/05 09:29:49;;;;;;;;;;;;;;;;;;5122610;27;19923;-79
2024/01/05 09:32:15;;;;;;;;;;;;;;;;;;5082730;27;20382;-79
2024/01/05 09:34:43;;;;;;;;;;;;;;;;;;5102431;27;19980;-80
2024/01/05 09:37:09;;;;;;;;;;;;;;;;;;5117679;27;20275;-81
2024/01/05 09:39:36;;;;;;;;;;;;;;;;;;5088044;27;19968;-78
2024/01/05 09:42:02;;;;;;;;;;;;;;;;;;5079758;28;19924;-78
2024/01/05 09:44:29;;;;;;;;;;;;;;;;;;5095272;28;20030;-77
2024/01/05 09:46:55;;;;;;;;;;;;;;;;;;5098465;28;20016;-81
2024/01/05 09:49:22;;;;;;;;;;;;;;;;;;5098143;27;19927;-82
2024/01/05 09:51:48;;;;;;;;;;;;;;;;;;5120125;28;20387;-81
2024/01/05 09:54:15;;;;;;;;;;;;;;;;;;5115569;28;20026;-80
2024/01/05 09:56:42;;;;;;;;;;;;;;;;;;5116010;28;19976;-82
2024/01/05 09:59:10;;;;;;;;;;;;;;;;;;5117678;28;19928;-82
2024/01/05 10:01:37;;;;;;;;;;;;;;;;;;5114697;28;19927;-81
2024/01/05 10:04:03;;;;;;;;;;;;;;;;;;5114022;28;20010;-82
2024/01/05 10:06:30;;;;;;;;;;;;;;;;;;5083194;28;20073;-81
2024/01/05 10:08:57;;;;;;;;;;;;;;;;;;5118145;28;20375;-80
2024/01/05 10:11:23;;;;;;;;;;;;;;;;;;5105720;28;19924;-80
2024/01/05 10:13:50;;;;;;;;;;;;;;;;;;5119236;28;19924;-81
2024/01/05 10:16:17;;;;;;;;;;;;;;;;;;5099263;28;19963;-81
2024/01/05 10:18:43;;;;;;;;;;;;;;;;;;5099238;28;19927;-81
2024/01/05 10:21:10;;;;;;;;;;;;;;;;;;5085482;28;19950;-81
2024/01/05 10:23:36;;;;;;;;;;;;;;;;;;5101707;28;19924;-80
2024/01/05 10:26:03;;;;;;;;;;;;;;;;;;5096125;28;19924;-82
2024/01/05 10:28:29;;;;;;;;;;;;;;;;;;5100353;28;19928;-82
2024/01/05 10:30:55;;;;;;;;;;;;;;;;;;5118775;28;19924;-80
2024/01/05 10:33:22;;;;;;;;;;;;;;;;;;5115238;28;19927;-82
2024/01/05 10:35:49;;;;;;;;;;;;;;;;;;5097674;28;20436;-80
2024/01/05 10:38:15;;;;;;;;;;;;;;;;;;5097869;28;20021;-81
2024/01/05 10:40:42;;;;;;;;;;;;;;;;;;5116533;28;20466;-80
2024/01/05 10:43:09;;;;;;;;;;;;;;;;;;5100711;28;20010;-81
2024/01/05 10:45:35;;;;;;;;;;;;;;;;;;5099389;28;19924;-81
2024/01/05 10:48:02;;;;;;;;;;;;;;;;;;5097530;28;20410;-82
2024/01/05 10:50:28;;;;;;;;;;;;;;;;;;5098831;28;19927;-82
2024/01/05 10:52:55;;;;;;;;;;;;;;;;;;5112897;28;20394;-80
2024/01/05 10:55:22;;;;;;;;;;;;;;;;;;5094327;28;19967;-81
2024/01/05 10:57:48;;;;;;;;;;;;;;;;;;5100306;28;20356;-82
2024/01/05 11:00:15;;;;;;;;;;;;;;;;;;5110980;28;19939;-77
2024/01/05 11:02:41;;;;;;;;;;;;;;;;;;5099673;28;19923;-81
2024/01/05 11:05:08;;;;;;;;;;;;;;;;;;5079902;28;20371;-81
2024/01/05 11:07:35;;;;;;;;;;;;;;;;;;5103809;27;19927;-81
2024/01/05 11:10:01;;;;;;;;;;;;;;;;;;5103804;27;19924;-79
2024/01/05 11:12:28;;;;;;;;;;;;;;;;;;5098996;28;19930;-81
2024/01/05 11:14:54;;;;;;;;;;;;;;;;;;5085398;27;19990;-82
2024/01/05 11:17:20;;;;;;;;;;;;;;;;;;5106363;27;19995;-82
2024/01/05 11:19:47;;;;;;;;;;;;;;;;;;5102179;28;19928;-80
2024/01/05 11:22:14;;;;;;;;;;;;;;;;;;5100139;28;20004;-80
2024/01/05 11:24:40;;;;;;;;;;;;;;;;;;5124443;27;19930;-81
2024/01/05 11:27:06;;;;;;;;;;;;;;;;;;5122278;27;19927;-82
2024/01/05 11:29:33;;;;;;;;;;;;;;;;;;5104421;28;20295;-82
2024/01/05 11:31:59;;;;;;;;;;;;;;;;;;5099089;28;20359;-81
2024/01/05 11:34:26;;;;;;;;;;;;;;;;;;5105833;27;20287;-81
2024/01/05 11:36:52;;;;;;;;;;;;;;;;;;5104027;27;19924;-82
2024/01/05 11:39:18;;;;;;;;;;;;;;;;;;5104660;27;19992;-80
2024/01/05 11:41:45;;;;;;;;;;;;;;;;;;5102454;28;20499;-81
2024/01/05 11:44:11;;;;;;;;;;;;;;;;;;5085325;27;19931;-81
2024/01/05 11:46:38;;;;;;;;;;;;;;;;;;5103892;27;20345;-82
2024/01/05 11:49:06;;;;;;;;;;;;;;;;;;5089119;27;20030;-81
2024/01/05 11:51:33;;;;;;;;;;;;;;;;;;5078716;28;19928;-79
2024/01/05 11:53:59;;;;;;;;;;;;;;;;;;5098127;27;19928;-81
2024/01/05 11:56:27;;;;;;;;;;;;;;;;;;5102911;27;19924;-82
2024/01/05 11:58:53;;;;;;;;;;;;;;;;;;5114298;27;20389;-81
2024/01/05 12:01:20;;;;;;;;;;;;;;;;;;5103194;27;20026;-81
2024/01/05 12:03:47;;;;;;;;;;;;;;;;;;5085016;27;19930;-81
2024/01/05 12:06:13;;;;;;;;;;;;;;;;;;5117398;27;20368;-79
2024/01/05 12:08:40;;;;;;;;;;;;;;;;;;5126223;27;20236;-78
2024/01/05 12:11:08;;;;;;;;;;;;;;;;;;5098134;28;19934;-79
2024/01/05 12:13:34;;;;;;;;;;;;;;;;;;5116943;27;19932;-80
2024/01/05 12:16:02;;;;;;;;;;;;;;;;;;5100519;28;20024;-81
2024/01/05 12:18:30;;;;;;;;;;;;;;;;;;5115961;27;20407;-81
2024/01/05 12:21:02;;;;;;;;;;;;;;;;;;5120223;27;19931;-81
2024/01/05 12:23:29;;;;;;;;;;;;;;;;;;5115562;27;20456;-79
2024/01/05 12:25:55;;;;;;;;;;;;;;;;;;5118394;27;19955;-80
2024/01/05 12:28:22;;;;;;;;;;;;;;;;;;5100783;27;20303;-79
2024/01/05 12:30:49;;;;;;;;;;;;;;;;;;5105184;27;19928;-80
2024/01/05 12:33:15;;;;;;;;;;;;;;;;;;5102331;28;19924;-82
2024/01/05 12:35:42;;;;;;;;;;;;;;;;;;5081105;28;19991;-77
2024/01/05 12:38:09;;;;;;;;;;;;;;;;;;5098878;27;20411;-79
2024/01/05 12:40:35;;;;;;;;;;;;;;;;;;5085040;27;19927;-81
2024/01/05 12:43:07;;;;;;;;;;;;;;;;;;5082687;28;19924;-77
2024/01/05 12:45:34;;;;;;;;;;;;;;;;;;5117442;27;19967;-79
2024/01/05 12:48:00;;;;;;;;;;;;;;;;;;5096937;28;19924;-80
2024/01/05 12:50:27;;;;;;;;;;;;;;;;;;5099758;28;20279;-80
2024/01/05 12:52:53;;;;;;;;;;;;;;;;;;5083643;28;19959;-82
2024/01/05 12:55:22;;;;;;;;;;;;;;;;;;5079991;28;19928;-81
2024/01/05 12:57:48;;;;;;;;;;;;;;;;;;5099046;27;20443;-77
2024/01/05 13:00:15;;;;;;;;;;;;;;;;;;5100756;27;20380;-80
2024/01/05 13:02:43;;;;;;;;;;;;;;;;;;5100039;27;19930;-81
2024/01/05 13:05:09;;;;;;;;;;;;;;;;;;5118178;27;19992;-80
2024/01/05 13:07:39;;;;;;;;;;;;;;;;;;5101480;28;19963;-79
2024/01/05 13:10:05;;;;;;;;;;;;;;;;;;5084703;28;19987;-81
2024/01/05 13:12:32;;;;;;;;;;;;;;;;;;5085070;27;19930;-80
2024/01/05 13:14:59;;;;;;;;;;;;;;;;;;5103452;27;19923;-81
2024/01/05 13:17:25;;;;;;;;;;;;;;;;;;5102138;27;20010;-81
2024/01/05 13:19:52;;;;;;;;;;;;;;;;;;5103956;28;19924;-80
2024/01/05 13:22:18;;;;;;;;;;;;;;;;;;5115057;28;19930;-80
2024/01/05 13:24:45;;;;;;;;;;;;;;;;;;5082470;28;20012;-79
2024/01/05 13:27:12;;;;;;;;;;;;;;;;;;5110350;27;19999;-81
2024/01/05 13:29:39;;;;;;;;;;;;;;;;;;5104487;28;20346;-78
2024/01/05 13:32:05;;;;;;;;;;;;;;;;;;5095224;27;19927;-78
2024/01/05 13:34:32;;;;;;;;;;;;;;;;;;5117540;27;19924;-81
2024/01/05 13:36:58;;;;;;;;;;;;;;;;;;5094703;27;19927;-82
2024/01/05 13:39:25;;;;;;;;;;;;;;;;;;5119178;27;20040;-82
2024/01/05 13:41:51;;;;;;;;;;;;;;;;;;5086014;27;19924;-80
2024/01/05 13:44:17;;;;;;;;;;;;;;;;;;5117131;27;19928;-82
2024/01/05 13:46:44;;;;;;;;;;;;;;;;;;5115643;28;20299;-83
2024/01/05 13:49:10;;;;;;;;;;;;;;;;;;5097162;28;19962;-82
2024/01/05 13:51:37;;;;;;;;;;;;;;;;;;5115128;27;19934;-80
2024/01/05 13:54:03;;;;;;;;;;;;;;;;;;5100395;28;19966;-82
2024/01/05 13:56:31;;;;;;;;;;;;;;;;;;5120112;28;20276;-80
2024/01/05 13:58:59;;;;;;;;;;;;;;;;;;5100191;28;20009;-80
2024/01/05 14:01:25;;;;;;;;;;;;;;;;;;5119531;28;20014;-82
2024/01/05 14:03:51;;;;;;;;;;;;;;;;;;5121255;28;19935;-80
2024/01/05 14:06:18;;;;;;;;;;;;;;;;;;5114984;28;19930;-80
2024/01/05 14:08:44;;;;;;;;;;;;;;;;;;5119097;28;19986;-80
2024/01/05 14:11:11;;;;;;;;;;;;;;;;;;5095550;28;19923;-81
2024/01/05 14:13:37;;;;;;;;;;;;;;;;;;5097956;28;20360;-82
2024/01/05 14:16:04;;;;;;;;;;;;;;;;;;5118247;28;19928;-82
2024/01/05 14:18:31;;;;;;;;;;;;;;;;;;5102557;28;19959;-80
2024/01/05 14:20:57;;;;;;;;;;;;;;;;;;5117389;28;19932;-81
2024/01/05 14:23:23;;;;;;;;;;;;;;;;;;5121039;28;19928;-81
2024/01/05 14:25:50;;;;;;;;;;;;;;;;;;5098796;28;19924;-82
2024/01/05 14:28:16;;;;;;;;;;;;;;;;;;5100887;28;20395;-80
2024/01/05 14:30:44;;;;;;;;;;;;;;;;;;5084670;28;20333;-82
2024/01/05 14:33:14;;;;;;;;;;;;;;;;;;5098382;28;19934;-80
2024/01/05 14:35:41;;;;;;;;;;;;;;;;;;5103081;28;19930;-81
2024/01/05 14:38:08;;;;;;;;;;;;;;;;;;5102106;28;19935;-82
2024/01/05 14:40:35;;;;;;;;;;;;;;;;;;5116237;28;19923;-80
2024/01/05 14:43:03;;;;;;;;;;;;;;;;;;5086638;28;19924;-81
2024/01/05 14:45:29;;;;;;;;;;;;;;;;;;5086743;28;19924;-81
2024/01/05 14:47:57;;;;;;;;;;;;;;;;;;5104519;28;19973;-81
2024/01/05 14:50:23;;;;;;;;;;;;;;;;;;5109226;27;20277;-82
2024/01/05 14:52:50;;;;;;;;;;;;;;;;;;5105733;27;19946;-82
2024/01/05 14:55:24;;;;;;;;;;;;;;;;;;5082913;27;20026;-81
2024/01/05 14:57:51;;;;;;;;;;;;;;;;;;5100749;28;19963;-81
2024/01/05 15:00:19;;;;;;;;;;;;;;;;;;5088387;27;19924;-80
2024/01/05 15:02:46;;;;;;;;;;;;;;;;;;5124362;27;20241;-81
2024/01/05 15:05:12;;;;;;;;;;;;;;;;;;5104087;28;19924;-79
2024/01/05 15:07:39;;;;;;;;;;;;;;;;;;5104817;27;19924;-79
2024/01/05 15:10:06;;;;;;;;;;;;;;;;;;5098936;28;20391;-80
2024/01/05 15:12:32;;;;;;;;;;;;;;;;;;5103524;28;19939;-80
2024/01/05 15:14:59;;;;;;;;;;;;;;;;;;5121459;27;19928;-77
2024/01/05 15:17:25;;;;;;;;;;;;;;;;;;5121682;27;19957;-78
2024/01/05 15:19:52;;;;;;;;;;;;;;;;;;5101504;27;20388;-74
2024/01/05 15:22:18;;;;;;;;;;;;;;;;;;5082396;28;19931;-76
2024/01/05 15:24:45;;;;;;;;;;;;;;;;;;5099876;28;19931;-74
2024/01/05 15:27:12;;;;;;;;;;;;;;;;;;5105565;27;19930;-78
2024/01/05 15:29:40;;;;;;;;;;;;;;;;;;5100750;27;20372;-79
2024/01/05 15:32:07;;;;;;;;;;;;;;;;;;5089026;27;19928;-78
2024/01/05 15:34:33;;;;;;;;;;;;;;;;;;5102124;27;20018;-78
2024/01/05 15:37:00;;;;;;;;;;;;;;;;;;5104041;28;20719;-82
2024/01/05 15:39:26;;;;;;;;;;;;;;;;;;5103018;27;19923;-82
2024/01/05 15:41:53;;;;;;;;;;;;;;;;;;5098793;28;20245;-80
2024/01/05 15:44:19;;;;;;;;;;;;;;;;;;5098731;27;19927;-78
2024/01/05 15:46:46;;;;;;;;;;;;;;;;;;5101182;27;19973;-82
2024/01/05 15:49:12;;;;;;;;;;;;;;;;;;5117094;27;20030;-82
2024/01/05 15:51:39;;;;;;;;;;;;;;;;;;5106425;27;19923;-79
2024/01/05 15:54:06;;;;;;;;;;;;;;;;;;5082539;28;19928;-80
2024/01/05 15:56:34;;;;;;;;;;;;;;;;;;5082250;28;19924;-80
2024/01/05 15:59:00;;;;;;;;;;;;;;;;;;5083222;28;19923;-77
2024/01/05 16:01:26;;;;;;;;;;;;;;;;;;5085000;27;19971;-78
2024/01/05 16:03:53;;;;;;;;;;;;;;;;;;5117773;27;19950;-81
2024/01/05 16:06:20;;;;;;;;;;;;;;;;;;5093484;28;19946;-80
2024/01/05 16:08:50;;;;;;;;;;;;;;;;;;5095194;28;20260;-79
2024/01/05 16:11:16;;;;;;;;;;;;;;;;;;5100662;27;19924;-81
2024/01/05 16:13:43;;;;;;;;;;;;;;;;;;5101910;28;20010;-78
2024/01/05 16:16:09;;;;;;;;;;;;;;;;;;5104164;28;19928;-79
2024/01/05 16:18:36;;;;;;;;;;;;;;;;;;5098183;28;19977;-78
2024/01/05 16:21:04;;;;;;;;;;;;;;;;;;5097392;28;19939;-80
2024/01/05 16:23:30;;;;;;;;;;;;;;;;;;5084313;27;19924;-79
2024/01/05 16:25:57;;;;;;;;;;;;;;;;;;5105468;28;20437;-78
2024/01/05 16:28:23;;;;;;;;;;;;;;;;;;5115266;27;20318;-79
2024/01/05 16:30:50;;;;;;;;;;;;;;;;;;5096458;27;20008;-79
2024/01/05 16:33:17;;;;;;;;;;;;;;;;;;5115919;27;19923;-81
2024/01/05 16:35:43;;;;;;;;;;;;;;;;;;5102569;27;19935;-82
2024/01/05 16:38:10;;;;;;;;;;;;;;;;;;5099969;27;20403;-78
2024/01/05 16:40:36;;;;;;;;;;;;;;;;;;5118012;27;20014;-77
2024/01/05 16:43:03;;;;;;;;;;;;;;;;;;5100605;28;20372;-80
2024/01/05 16:45:29;;;;;;;;;;;;;;;;;;5103658;27;19962;-76